Airfield :
LOGIN :

Register | Disclaimer

   EN    FR    IT 

 










Legend :    VFR   Marginal VFR   IFR   Intensive IFR   Very Intensive IFR
Visi :
Ceiling :
>= 8 km
>= 3000ft
5 to 8 km
1000 to 3000 ft
1500m to 5 km
500 to 1000 ft
800 to 1500m
200 to 500 ft
< 800m
< 200 ft
Symbols :   Thunderstorms  Fog  Heavy snow  Heavy precipitations  Wind > 20 kt
SIGMETs :     Misc.  Thunderstorms  Icing  Turbulence  Mountain Waves  Volcanic Ashes







- Airport Elevation : 219 ft
- IATA code : DNR
- Download approach charts


LFRD - Dinard

CURRENT METAR :
  • 200730Z AUTO 28009KT 260V320 9999 BKN013 BKN021 15/11 Q1016 TEMPO 4000 SHRA BKN030TCU

EXPIRED METARs :
  • 200700Z AUTO 26006KT 220V290 9999 FEW010 14/12 Q1016 TEMPO 4000 SHRA BKN030TCU
  • 200630Z AUTO 26006KT 9999 FEW007 13/11 Q1016 BECMG BKN020
  • 200600Z AUTO 24005KT 9999 SCT016 12/10 Q1016 NOSIG
  • 200530Z AUTO 23005KT 9999 BKN015 BKN022 BKN031 11/10 Q1016 NOSIG
  • 200500Z AUTO 23005KT 9999 BKN013 BKN018 11/10 Q1015 BECMG 30010KT

TAF TAF LFRD
Valid from the 20 at 06:00 until the 21 at 06:00 UTC


200500Z 2006/2106 28006KT 9999 BKN020
TEMPO 2006/2007 BKN013
PROB30
TEMPO 2009/2018 4000 SHRA BKN030TCU
BECMG 2012/2015 33010KT
BECMG 2021/2024 3000 BR
TEMPO 2100/2106 0500 FG VV///
ATIS : +33 2 99 16 81 50
No reported NOTAMs for that airfield.



MET'MAP, your aeronautical weather chart ! - Copyright ORBIFLY December 2007 - Disclaimer

ORBIFLY MET'MAP TEAM :

Programming & Development : Alexandra Zaïnal
Concept & Development : Baudouin d'Aumeries
Co-Development & Prog : Marc-Olivier Méhu
Technical & hardware support : Manuel Goepfert

Contact : metmap@orbifly.com




SOURCES & CREDITS :

   NOAA